createdAt,value
2023-04-02T00:00:11.612Z,73.83
2023-04-02T00:04:03.303Z,74.38
2023-04-02T00:07:58.653Z,74.52
2023-04-02T01:09:30.368Z,74.25
2023-04-02T01:13:22.710Z,74.11
2023-04-02T01:28:58.574Z,73.05
2023-04-02T01:32:47.709Z,73.36
2023-04-02T01:36:29.456Z,73.61
2023-04-02T01:40:31.064Z,73.59
2023-04-02T01:44:37.334Z,73.79
2023-04-02T01:52:07.898Z,73.60
2023-04-02T02:22:44.342Z,73.37
2023-04-02T02:26:33.460Z,73.74
2023-04-02T02:30:22.576Z,73.49
2023-04-02T02:34:11.431Z,73.46
2023-04-02T02:37:55.338Z,73.87
2023-04-02T02:41:44.247Z,73.92
2023-04-02T02:45:33.868Z,74.19
2023-04-02T02:49:24.732Z,74.31
2023-04-02T02:52:57.416Z,74.25
2023-04-02T02:56:48.698Z,74.15
2023-04-02T03:00:39.132Z,74.11
2023-04-02T03:16:43.631Z,73.12
2023-04-02T03:20:44.685Z,73.45
2023-04-02T03:24:35.287Z,73.47
2023-04-02T03:36:37.950Z,73.05
2023-04-02T03:40:39.529Z,73.12
2023-04-02T04:00:23.222Z,72.68
2023-04-02T04:04:24.353Z,72.94
2023-04-02T04:08:16.719Z,72.60
2023-04-02T04:12:12.349Z,72.65
2023-04-02T04:16:01.817Z,72.40
2023-04-02T04:19:52.221Z,72.11
2023-04-02T04:23:40.266Z,72.02
2023-04-02T04:35:45.463Z,71.88
2023-04-02T04:39:34.854Z,71.95
2023-04-02T04:43:24.164Z,71.71
2023-04-02T04:47:19.791Z,71.45
2023-04-02T04:51:11.797Z,71.34
2023-04-02T04:55:01.752Z,71.68
2023-04-02T04:59:02.914Z,71.64
2023-04-02T05:02:56.013Z,71.28
2023-04-02T05:06:48.000Z,71.18
2023-04-02T05:26:01.434Z,70.48
2023-04-02T05:29:38.230Z,70.39
2023-04-02T05:33:18.090Z,70.22
2023-04-02T05:36:56.125Z,69.82
2023-04-02T05:40:28.429Z,69.42
2023-04-02T05:43:50.891Z,69.62
2023-04-02T05:47:18.671Z,69.39
2023-04-02T05:50:44.080Z,69.36
2023-04-02T05:54:24.546Z,69.48
2023-04-02T06:02:17.847Z,69.16
2023-04-02T06:06:05.877Z,69.50
2023-04-02T06:10:02.931Z,69.36
2023-04-02T06:13:43.653Z,69.29
2023-04-02T06:17:00.491Z,68.57
2023-04-02T06:20:25.827Z,68.42
2023-04-02T06:24:14.704Z,67.91
2023-04-02T06:34:44.050Z,68.16
2023-04-02T06:38:12.700Z,68.25
2023-04-02T06:42:04.571Z,67.82
2023-04-02T06:45:41.504Z,67.53
2023-04-02T06:49:24.065Z,67.64
2023-04-02T06:53:14.008Z,68.08
2023-04-02T06:56:57.639Z,68.64
2023-04-02T07:00:48.837Z,68.78
2023-04-02T07:04:39.469Z,68.56
2023-04-02T07:08:03.092Z,68.49
2023-04-02T07:11:56.454Z,68.21
2023-04-02T07:19:30.289Z,67.57
2023-04-02T07:23:22.201Z,67.35
2023-04-02T08:23:48.294Z,64.05
2023-04-02T08:27:37.770Z,63.67
2023-04-02T08:31:25.152Z,64.01
2023-04-02T08:35:02.167Z,63.57
2023-04-02T08:38:51.301Z,63.87
2023-04-02T08:42:58.460Z,64.00
2023-04-02T08:46:42.089Z,63.92
2023-04-02T08:50:56.756Z,62.90
2023-04-02T09:10:14.587Z,60.60
2023-04-02T09:13:46.600Z,59.23
2023-04-02T09:17:15.447Z,58.68
2023-04-02T09:20:47.630Z,60.65
2023-04-02T09:24:25.527Z,63.29
2023-04-02T09:28:06.832Z,65.03
2023-04-02T09:31:52.533Z,64.30
2023-04-02T09:35:52.897Z,63.63
2023-04-02T09:39:27.162Z,63.79
2023-04-02T09:42:59.331Z,63.75
2023-04-02T10:04:47.820Z,57.83
2023-04-02T10:12:08.107Z,58.21
2023-04-02T10:15:43.883Z,59.97
2023-04-02T10:19:20.952Z,62.92
2023-04-02T10:22:40.117Z,64.53
2023-04-02T10:26:18.230Z,64.56
2023-04-02T10:30:10.786Z,64.32
2023-04-02T10:34:02.103Z,63.08
2023-04-02T10:48:39.566Z,60.60
2023-04-02T10:52:15.116Z,58.86
2023-04-02T10:56:07.872Z,59.21
2023-04-02T10:59:58.169Z,62.86
2023-04-02T11:18:36.751Z,61.54
2023-04-02T11:22:10.697Z,61.02
2023-04-02T11:25:41.638Z,61.03
2023-04-02T11:29:19.134Z,59.88
2023-04-02T11:33:35.859Z,58.03
2023-04-02T11:37:30.754Z,57.78
2023-04-02T11:40:41.933Z,58.68
2023-04-02T12:02:15.483Z,62.88
2023-04-02T12:06:10.970Z,62.55
2023-04-02T12:10:04.683Z,61.91
2023-04-02T12:13:59.910Z,61.96
2023-04-02T12:17:21.770Z,61.85
2023-04-02T12:21:00.115Z,61.19
2023-04-02T12:24:17.215Z,60.89
2023-04-02T12:27:56.866Z,58.64
2023-04-02T12:34:35.097Z,58.06
2023-04-02T12:37:53.250Z,60.34
2023-04-02T12:41:08.310Z,62.02
2023-04-02T12:44:21.442Z,64.16
2023-04-02T12:47:28.695Z,64.30
2023-04-02T12:50:34.325Z,64.20
2023-04-02T12:53:54.056Z,63.85
2023-04-02T12:57:08.045Z,63.52
2023-04-02T13:00:06.545Z,63.09
2023-04-02T13:03:39.623Z,62.80
2023-04-02T13:06:47.866Z,62.82
2023-04-02T13:10:10.441Z,62.39
2023-04-02T13:13:12.511Z,62.39
2023-04-02T13:16:20.843Z,61.98
2023-04-02T13:19:10.708Z,61.87
2023-04-02T13:22:11.436Z,61.62
2023-04-02T13:24:56.502Z,61.56
2023-04-02T13:27:38.411Z,60.30
2023-04-02T13:31:01.129Z,58.80
2023-04-02T13:34:00.147Z,57.02
2023-04-02T13:36:49.205Z,57.34
2023-04-02T13:39:31.818Z,58.33
2023-04-02T13:42:34.600Z,58.79
2023-04-02T13:45:45.318Z,59.07
2023-04-02T13:48:34.939Z,60.17
2023-04-02T13:51:37.042Z,60.70
2023-04-02T13:55:07.018Z,62.55
2023-04-02T13:58:19.231Z,64.16
2023-04-02T14:01:23.687Z,63.15
2023-04-02T14:04:28.807Z,62.72
2023-04-02T14:07:39.782Z,61.98
2023-04-02T14:11:26.702Z,61.59
2023-04-02T14:14:49.750Z,61.27
2023-04-02T14:33:10.544Z,58.55
2023-04-02T14:37:11.897Z,57.88
2023-04-02T14:40:57.688Z,58.28
2023-04-02T14:44:47.780Z,58.55
2023-04-02T15:00:13.882Z,64.48
2023-04-02T15:03:49.521Z,65.03
2023-04-02T15:07:09.213Z,64.64
2023-04-02T15:10:26.643Z,63.29
2023-04-02T15:17:51.206Z,59.68
2023-04-02T15:21:20.358Z,58.33
2023-04-02T15:25:11.552Z,58.75
2023-04-02T15:29:28.809Z,59.00
2023-04-02T15:32:51.590Z,60.06
2023-04-02T15:36:33.155Z,60.39
2023-04-02T16:00:07.394Z,59.79
2023-04-02T16:04:02.518Z,58.24
2023-04-02T16:07:48.192Z,58.96
2023-04-02T16:23:00.575Z,63.97
2023-04-02T16:26:53.332Z,65.25
2023-04-02T16:30:41.203Z,64.35
2023-04-02T16:34:29.617Z,62.49
2023-04-02T16:47:03.187Z,59.68
2023-04-02T16:50:39.521Z,57.53
2023-04-02T16:54:30.565Z,57.70
2023-04-02T16:58:17.409Z,58.26
2023-04-02T17:02:00.607Z,59.27
2023-04-02T17:21:13.061Z,62.41
2023-04-02T17:25:02.025Z,63.09
2023-04-02T17:28:51.121Z,62.82
2023-04-02T17:32:20.961Z,62.61
2023-04-02T17:36:08.215Z,62.31
2023-04-02T17:39:52.760Z,62.01
2023-04-02T17:56:06.572Z,59.71
2023-04-02T17:59:38.644Z,57.78
2023-04-02T18:15:50.312Z,64.23
2023-04-02T18:19:44.297Z,65.38
2023-04-02T18:23:50.874Z,65.36
2023-04-02T18:43:24.881Z,62.43
2023-04-02T18:47:26.065Z,62.84
2023-04-02T18:50:58.722Z,62.74
2023-04-02T18:54:49.541Z,62.49
2023-04-02T18:58:18.434Z,62.28
2023-04-02T19:02:07.796Z,62.24
2023-04-02T19:06:09.565Z,62.23
2023-04-02T19:10:00.681Z,62.43
2023-04-02T19:25:29.767Z,56.41
2023-04-02T19:29:37.175Z,56.73
2023-04-02T19:45:13.487Z,59.44
2023-04-02T19:49:00.316Z,60.05
2023-04-02T19:52:42.304Z,60.00
2023-04-02T19:56:20.518Z,60.53
2023-04-02T20:00:02.027Z,60.57
2023-04-02T20:03:51.291Z,61.55
2023-04-02T20:07:40.149Z,61.84
2023-04-02T20:11:12.213Z,65.33
2023-04-02T20:15:01.390Z,63.79
2023-04-02T20:18:26.615Z,58.24
2023-04-02T20:22:15.768Z,58.01
2023-04-02T20:25:58.689Z,58.06
2023-04-02T20:29:47.863Z,58.61
2023-04-02T20:33:20.004Z,60.40
2023-04-02T20:36:46.470Z,59.89
2023-04-02T20:40:36.080Z,61.11
2023-04-02T20:44:25.344Z,61.02
2023-04-02T20:48:14.802Z,61.01
2023-04-02T20:51:36.940Z,65.13
2023-04-02T20:55:26.135Z,67.55
2023-04-02T20:59:00.432Z,66.06
2023-04-02T21:02:42.624Z,64.76
2023-04-02T21:06:31.867Z,63.80
2023-04-02T21:10:21.004Z,62.54
2023-04-02T21:14:10.103Z,62.07
2023-04-02T21:17:59.208Z,58.92
2023-04-02T21:21:48.596Z,56.83
2023-04-02T21:25:38.020Z,56.95
2023-04-02T21:29:21.198Z,57.39
2023-04-02T21:33:09.164Z,58.01
2023-04-02T21:36:47.454Z,58.62
2023-04-02T21:40:18.188Z,59.59
2023-04-02T21:43:57.426Z,59.79
2023-04-02T21:47:45.817Z,60.50
2023-04-02T21:51:35.380Z,64.70
2023-04-02T21:55:24.468Z,67.84
2023-04-02T21:59:13.632Z,66.72
2023-04-02T22:03:02.877Z,64.63
2023-04-02T22:06:54.955Z,63.42
2023-04-02T22:10:44.384Z,62.96
2023-04-02T22:14:33.248Z,61.96
2023-04-02T22:18:22.344Z,61.61
2023-04-02T22:22:11.437Z,58.78
2023-04-02T22:26:00.541Z,56.65
2023-04-02T22:29:42.972Z,56.94
2023-04-02T22:33:32.113Z,57.68
2023-04-02T22:37:17.222Z,58.36
2023-04-02T22:41:06.690Z,59.23
2023-04-02T22:44:55.830Z,62.76
2023-04-02T22:48:45.129Z,65.61
2023-04-02T22:52:17.615Z,65.78
2023-04-02T22:56:06.975Z,65.27
2023-04-02T22:59:56.255Z,64.50
2023-04-02T23:03:45.412Z,63.86
2023-04-02T23:07:34.518Z,63.25
2023-04-02T23:11:16.698Z,62.41
2023-04-02T23:15:06.002Z,62.21
2023-04-02T23:18:55.363Z,61.84
2023-04-02T23:22:44.507Z,61.66
2023-04-02T23:26:48.950Z,61.25
2023-04-02T23:30:38.434Z,61.10
2023-04-02T23:34:20.433Z,60.81
2023-04-02T23:38:10.837Z,58.18
2023-04-02T23:41:59.309Z,56.76
2023-04-02T23:45:58.387Z,56.84
